THY1152 LTAI-URSS
Flight info
| Callsign | THY1152 |
|---|---|
| Flight time | N/A |
| Altitude | 37000 |
| Route | TEWHE1J/36C TEWHE UR55 MUT UA285 GEM UT243 CRM UG901 BALUM/K0845F370 G901 KEPOL G487 DIRUN DIRUN1K |
| Aircraft | A320/M-SDFGJ1IYRW/LB1 |
Departure
| Time | 2026-05-04 16:40 |
|---|---|
| Airport | Antalya International Airport (LTAI) |
Arrival
| Time | N/A |
|---|---|
| Airport | Sochi International Airport (URSS) |
| Time | Latitude | Longitude | Altitude | Speed | Heading |
|---|---|---|---|---|---|
| 2026-05-04 15:57 | 36.89782 | 30.80234 | 190 ft | 0 kts | 285° |
| 2026-05-04 15:58 | 36.89782 | 30.80235 | 190 ft | 0 kts | 285° |
| 2026-05-04 16:20 | 36.89782 | 30.80236 | 189 ft | 0 kts | 285° |
| 2026-05-04 16:26 | 36.89778 | 30.80254 | 206 ft | 2 kts | 285° |
| 2026-05-04 16:27 | 36.89769 | 30.80295 | 202 ft | 2 kts | 285° |
| 2026-05-04 16:28 | 36.89730 | 30.80316 | 202 ft | 2 kts | 5° |
| 2026-05-04 16:28 | 36.89680 | 30.80310 | 201 ft | 2 kts | 5° |
| 2026-05-04 16:29 | 36.89615 | 30.80306 | 194 ft | 2 kts | 340° |
| 2026-05-04 16:30 | 36.89574 | 30.80338 | 201 ft | 2 kts | 328° |
| 2026-05-04 16:31 | 36.89545 | 30.80353 | 199 ft | 2 kts | 8° |
| 2026-05-04 16:31 | 36.89525 | 30.80349 | 198 ft | 0 kts | 8° |
| 2026-05-04 16:34 | 36.89541 | 30.80352 | 197 ft | 5 kts | 8° |
| 2026-05-04 16:35 | 36.89566 | 30.80554 | 189 ft | 12 kts | 101° |
| 2026-05-04 16:35 | 36.89447 | 30.80676 | 193 ft | 11 kts | 184° |
| 2026-05-04 16:36 | 36.89368 | 30.80664 | 189 ft | 12 kts | 187° |
| 2026-05-04 16:36 | 36.89215 | 30.80643 | 200 ft | 6 kts | 186° |
| 2026-05-04 16:37 | 36.89155 | 30.80686 | 201 ft | 7 kts | 112° |
| 2026-05-04 16:37 | 36.89189 | 30.80743 | 188 ft | 9 kts | 42° |
| 2026-05-04 16:37 | 36.89214 | 30.80766 | 188 ft | 0 kts | 36° |
| 2026-05-04 16:38 | 36.89215 | 30.80766 | 188 ft | 1 kts | 36° |
| 2026-05-04 16:39 | 36.89325 | 30.80853 | 188 ft | 11 kts | 27° |
| 2026-05-04 16:39 | 36.89468 | 30.80913 | 193 ft | 0 kts | 8° |
| 2026-05-04 16:40 | 36.90019 | 30.80988 | 195 ft | 109 kts | 6° |
| 2026-05-04 16:40 | 36.92014 | 30.81334 | 1109 ft | 154 kts | 13° |
| 2026-05-04 16:41 | 36.93950 | 30.82415 | 2434 ft | 156 kts | 15° |
| 2026-05-04 16:41 | 36.97533 | 30.84272 | 3505 ft | 209 kts | 28° |
| 2026-05-04 16:42 | 36.98610 | 30.90138 | 5189 ft | 281 kts | 91° |
| 2026-05-04 16:43 | 36.98138 | 30.95096 | 6894 ft | 289 kts | 93° |
| 2026-05-04 16:43 | 36.97664 | 31.00134 | 7933 ft | 293 kts | 92° |
| 2026-05-04 16:43 | 36.97435 | 31.02662 | 8005 ft | 292 kts | 92° |
| 2026-05-04 16:44 | 36.96904 | 31.12732 | 8810 ft | 293 kts | 86° |
| 2026-05-04 16:45 | 36.96914 | 31.17898 | 10319 ft | 306 kts | 85° |
| 2026-05-04 16:46 | 36.96932 | 31.26672 | 11505 ft | 356 kts | 88° |
| 2026-05-04 16:46 | 36.96927 | 31.32949 | 11969 ft | 359 kts | 88° |
| 2026-05-04 16:47 | 36.96944 | 31.39202 | 11975 ft | 359 kts | 88° |
| 2026-05-04 16:47 | 36.96951 | 31.45515 | 13279 ft | 366 kts | 88° |
| 2026-05-04 16:48 | 36.96987 | 31.55252 | 15262 ft | 381 kts | 88° |
| 2026-05-04 16:48 | 36.97008 | 31.58567 | 15907 ft | 385 kts | 87° |
| 2026-05-04 16:49 | 36.97040 | 31.65321 | 17151 ft | 395 kts | 87° |
| 2026-05-04 16:49 | 36.97018 | 31.72279 | 18358 ft | 404 kts | 88° |
| 2026-05-04 16:50 | 36.96958 | 31.79373 | 19545 ft | 413 kts | 88° |
| 2026-05-04 16:50 | 36.96197 | 31.86575 | 20739 ft | 427 kts | 106° |
| 2026-05-04 16:51 | 36.93453 | 31.93255 | 21913 ft | 437 kts | 126° |
| 2026-05-04 16:51 | 36.91826 | 31.96440 | 22478 ft | 440 kts | 116° |
| 2026-05-04 16:51 | 36.89999 | 32.03769 | 23578 ft | 444 kts | 95° |
| 2026-05-04 16:52 | 36.89724 | 32.11479 | 23887 ft | 444 kts | 89° |
| 2026-05-04 16:52 | 36.89638 | 32.15314 | 23907 ft | 444 kts | 88° |
| 2026-05-04 16:53 | 36.89448 | 32.23060 | 23999 ft | 448 kts | 89° |
| 2026-05-04 16:53 | 36.89137 | 32.34997 | 24832 ft | 473 kts | 89° |
| 2026-05-04 16:54 | 36.89024 | 32.39107 | 25170 ft | 477 kts | 89° |
| 2026-05-04 16:55 | 36.88555 | 32.55539 | 27609 ft | 468 kts | 89° |
| 2026-05-04 16:55 | 36.88332 | 32.63746 | 28494 ft | 473 kts | 89° |
| 2026-05-04 16:56 | 36.88104 | 32.71979 | 29185 ft | 481 kts | 90° |
| 2026-05-04 16:56 | 36.87775 | 32.83229 | 30100 ft | 488 kts | 90° |
| 2026-05-04 16:57 | 36.87647 | 32.87485 | 30371 ft | 490 kts | 90° |
| 2026-05-04 16:57 | 36.87381 | 32.96024 | 30806 ft | 495 kts | 90° |
| 2026-05-04 16:58 | 36.86940 | 33.08759 | 31190 ft | 491 kts | 90° |
| 2026-05-04 16:58 | 36.86811 | 33.13009 | 31385 ft | 494 kts | 90° |
| 2026-05-04 16:59 | 36.86861 | 33.21576 | 31980 ft | 492 kts | 80° |
| 2026-05-04 17:00 | 36.92727 | 33.36474 | 33321 ft | 478 kts | 41° |
| 2026-05-04 17:00 | 37.00613 | 33.43836 | 34255 ft | 471 kts | 25° |
| 2026-05-04 17:01 | 37.06367 | 33.47754 | 34817 ft | 471 kts | 25° |
| 2026-05-04 17:01 | 37.12132 | 33.51666 | 35459 ft | 470 kts | 25° |
| 2026-05-04 17:02 | 37.17871 | 33.55584 | 36050 ft | 469 kts | 25° |
| 2026-05-04 17:02 | 37.23595 | 33.59505 | 36575 ft | 469 kts | 25° |
| 2026-05-04 17:03 | 37.26458 | 33.61467 | 36826 ft | 469 kts | 25° |
| 2026-05-04 17:03 | 37.35059 | 33.67357 | 36912 ft | 469 kts | 25° |
| 2026-05-04 17:04 | 37.46536 | 33.75256 | 36903 ft | 471 kts | 26° |
| 2026-05-04 17:05 | 37.58046 | 33.83207 | 36915 ft | 472 kts | 26° |
| 2026-05-04 17:06 | 37.65641 | 33.88464 | 36916 ft | 472 kts | 26° |
| 2026-05-04 17:07 | 37.70801 | 33.92038 | 36924 ft | 472 kts | 26° |
| 2026-05-04 17:07 | 37.77502 | 33.96694 | 36926 ft | 473 kts | 26° |
| 2026-05-04 17:08 | 37.86171 | 34.02739 | 36913 ft | 473 kts | 26° |
| 2026-05-04 17:09 | 37.90973 | 34.06090 | 36919 ft | 473 kts | 26° |
| 2026-05-04 17:09 | 37.95780 | 34.09410 | 36924 ft | 473 kts | 26° |
| 2026-05-04 17:10 | 38.10161 | 34.19560 | 36939 ft | 472 kts | 27° |
| 2026-05-04 17:11 | 38.15919 | 34.23608 | 36921 ft | 473 kts | 27° |
| 2026-05-04 17:12 | 38.24607 | 34.29720 | 36913 ft | 481 kts | 27° |
| 2026-05-04 17:13 | 38.39332 | 34.40152 | 36911 ft | 480 kts | 27° |
| 2026-05-04 17:14 | 38.50967 | 34.48419 | 36888 ft | 479 kts | 27° |
| 2026-05-04 17:15 | 38.59719 | 34.54669 | 36893 ft | 481 kts | 28° |
| 2026-05-04 17:16 | 38.71433 | 34.63049 | 36884 ft | 481 kts | 28° |
| 2026-05-04 17:17 | 38.83097 | 34.71422 | 36894 ft | 480 kts | 28° |
| 2026-05-04 17:18 | 38.94755 | 34.79839 | 36877 ft | 481 kts | 28° |
| 2026-05-04 17:19 | 39.06475 | 34.88301 | 36876 ft | 481 kts | 29° |
| 2026-05-04 17:20 | 39.18152 | 34.96797 | 36877 ft | 482 kts | 28° |
| 2026-05-04 17:20 | 39.26902 | 35.03170 | 36865 ft | 482 kts | 29° |
| 2026-05-04 17:21 | 39.38581 | 35.11714 | 36864 ft | 482 kts | 29° |
| 2026-05-04 17:22 | 39.44322 | 35.15928 | 36829 ft | 466 kts | 29° |
| 2026-05-04 17:23 | 39.52891 | 35.22238 | 36839 ft | 478 kts | 30° |
| 2026-05-04 17:23 | 39.55780 | 35.24370 | 36834 ft | 478 kts | 30° |
| 2026-05-04 17:24 | 39.64456 | 35.30765 | 36829 ft | 478 kts | 30° |
| 2026-05-04 17:25 | 39.76026 | 35.39333 | 36824 ft | 478 kts | 30° |
| 2026-05-04 17:26 | 39.87604 | 35.47945 | 36794 ft | 481 kts | 30° |
| 2026-05-04 17:27 | 40.02199 | 35.58849 | 36798 ft | 484 kts | 30° |
| 2026-05-04 17:28 | 40.12943 | 35.66906 | 36830 ft | 484 kts | 31° |
| 2026-05-04 17:29 | 40.30459 | 35.80116 | 36838 ft | 484 kts | 31° |
| 2026-05-04 17:31 | 40.45025 | 35.91154 | 36837 ft | 485 kts | 31° |
| 2026-05-04 17:32 | 40.59566 | 36.02231 | 36873 ft | 485 kts | 31° |
| 2026-05-04 17:33 | 40.71249 | 36.11179 | 36879 ft | 485 kts | 31° |
| 2026-05-04 17:34 | 40.82879 | 36.20113 | 36863 ft | 483 kts | 31° |
| 2026-05-04 17:35 | 40.97399 | 36.31321 | 36895 ft | 483 kts | 31° |
| 2026-05-04 17:36 | 41.03173 | 36.35796 | 36895 ft | 484 kts | 31° |
| 2026-05-04 17:36 | 41.08991 | 36.40312 | 36910 ft | 484 kts | 32° |
| 2026-05-04 17:37 | 41.14801 | 36.44834 | 36923 ft | 485 kts | 32° |
| 2026-05-04 17:37 | 41.20614 | 36.49375 | 36931 ft | 483 kts | 31° |
| 2026-05-04 17:38 | 41.26416 | 36.53914 | 36945 ft | 483 kts | 31° |
| 2026-05-04 17:38 | 41.32187 | 36.58428 | 36945 ft | 482 kts | 31° |
| 2026-05-04 17:39 | 41.40849 | 36.65223 | 36946 ft | 481 kts | 31° |
| 2026-05-04 17:39 | 41.46614 | 36.69755 | 36945 ft | 481 kts | 32° |
| 2026-05-04 17:40 | 41.52382 | 36.74297 | 36936 ft | 481 kts | 32° |
| 2026-05-04 17:40 | 41.58146 | 36.78851 | 36935 ft | 481 kts | 32° |
| 2026-05-04 17:41 | 41.63905 | 36.83419 | 36944 ft | 481 kts | 32° |
| 2026-05-04 17:41 | 41.69657 | 36.87984 | 36945 ft | 481 kts | 32° |
| 2026-05-04 17:42 | 41.75412 | 36.92559 | 36956 ft | 481 kts | 32° |
| 2026-05-04 17:42 | 41.81161 | 36.97137 | 36954 ft | 479 kts | 32° |
| 2026-05-04 17:43 | 41.86884 | 37.01706 | 36958 ft | 479 kts | 32° |
| 2026-05-04 17:43 | 41.92611 | 37.06293 | 36958 ft | 478 kts | 32° |
| 2026-05-04 17:44 | 41.98348 | 37.10809 | 36229 ft | 478 kts | 30° |
| 2026-05-04 17:44 | 42.01208 | 37.13046 | 36431 ft | 475 kts | 30° |
| 2026-05-04 17:44 | 42.04057 | 37.15277 | 37237 ft | 475 kts | 32° |
| 2026-05-04 17:45 | 42.06898 | 37.17506 | 37014 ft | 475 kts | 32° |
| 2026-05-04 17:45 | 42.09752 | 37.19749 | 36920 ft | 474 kts | 32° |
| 2026-05-04 17:45 | 42.15436 | 37.24234 | 36931 ft | 475 kts | 32° |
| 2026-05-04 17:46 | 42.21138 | 37.28754 | 36934 ft | 475 kts | 32° |
| 2026-05-04 17:46 | 42.26832 | 37.33276 | 36934 ft | 475 kts | 32° |
| 2026-05-04 17:47 | 42.32547 | 37.37829 | 36943 ft | 475 kts | 32° |
| 2026-05-04 17:47 | 42.38239 | 37.42367 | 36954 ft | 474 kts | 32° |
| 2026-05-04 17:48 | 42.43885 | 37.46874 | 36956 ft | 473 kts | 32° |
| 2026-05-04 17:48 | 42.49585 | 37.51434 | 36948 ft | 472 kts | 32° |
| 2026-05-04 17:49 | 42.55245 | 37.55986 | 36951 ft | 472 kts | 33° |
| 2026-05-04 17:49 | 42.60889 | 37.60527 | 36293 ft | 471 kts | 33° |
| 2026-05-04 17:50 | 42.63694 | 37.62781 | 35665 ft | 468 kts | 33° |
| 2026-05-04 17:50 | 42.66497 | 37.65037 | 35012 ft | 466 kts | 33° |
| 2026-05-04 17:50 | 42.69276 | 37.67294 | 34371 ft | 464 kts | 34° |
| 2026-05-04 17:50 | 42.71992 | 37.69644 | 33690 ft | 460 kts | 36° |
| 2026-05-04 17:51 | 42.74636 | 37.72066 | 32880 ft | 458 kts | 38° |
| 2026-05-04 17:51 | 42.77249 | 37.74537 | 32032 ft | 457 kts | 38° |
| 2026-05-04 17:51 | 42.79861 | 37.77025 | 31165 ft | 457 kts | 39° |
| 2026-05-04 17:51 | 42.82462 | 37.79488 | 30278 ft | 455 kts | 39° |
| 2026-05-04 17:52 | 42.85063 | 37.81927 | 29299 ft | 453 kts | 39° |
| 2026-05-04 17:52 | 42.87672 | 37.84348 | 28236 ft | 453 kts | 38° |
| 2026-05-04 17:52 | 42.90274 | 37.86745 | 27226 ft | 453 kts | 38° |
| 2026-05-04 17:52 | 42.92895 | 37.89158 | 26202 ft | 454 kts | 38° |
| 2026-05-04 17:53 | 42.95504 | 37.91570 | 25376 ft | 452 kts | 38° |
| 2026-05-04 17:53 | 42.98089 | 37.93966 | 24593 ft | 449 kts | 39° |
| 2026-05-04 17:53 | 43.00590 | 37.96466 | 23875 ft | 441 kts | 46° |
| 2026-05-04 17:53 | 43.02701 | 37.99446 | 23055 ft | 431 kts | 56° |
| 2026-05-04 17:54 | 43.04327 | 38.02803 | 22303 ft | 421 kts | 66° |
| 2026-05-04 17:54 | 43.05506 | 38.06416 | 21687 ft | 412 kts | 72° |
| 2026-05-04 17:54 | 43.06571 | 38.10073 | 21067 ft | 407 kts | 71° |
| 2026-05-04 17:54 | 43.07614 | 38.13653 | 20477 ft | 403 kts | 71° |
| 2026-05-04 17:55 | 43.08489 | 38.17255 | 19911 ft | 398 kts | 79° |
| 2026-05-04 17:55 | 43.08869 | 38.20954 | 19544 ft | 392 kts | 88° |
| 2026-05-04 17:55 | 43.09078 | 38.24654 | 19187 ft | 388 kts | 88° |
| 2026-05-04 17:55 | 43.09295 | 38.28337 | 18827 ft | 386 kts | 87° |
| 2026-05-04 17:56 | 43.09512 | 38.31998 | 18465 ft | 385 kts | 87° |
| 2026-05-04 17:56 | 43.09729 | 38.35649 | 18092 ft | 385 kts | 87° |
| 2026-05-04 17:56 | 43.09943 | 38.39300 | 17716 ft | 385 kts | 87° |
| 2026-05-04 17:56 | 43.10157 | 38.42941 | 17352 ft | 384 kts | 87° |
| 2026-05-04 17:57 | 43.10368 | 38.46585 | 17007 ft | 383 kts | 87° |
| 2026-05-04 17:57 | 43.10576 | 38.50216 | 16639 ft | 382 kts | 87° |
| 2026-05-04 17:57 | 43.10781 | 38.53826 | 16289 ft | 381 kts | 87° |
| 2026-05-04 17:57 | 43.10984 | 38.57434 | 15931 ft | 380 kts | 87° |
| 2026-05-04 17:58 | 43.11186 | 38.61044 | 15584 ft | 379 kts | 87° |
| 2026-05-04 17:58 | 43.11386 | 38.64635 | 15223 ft | 379 kts | 87° |
| 2026-05-04 17:58 | 43.11585 | 38.68218 | 14871 ft | 378 kts | 87° |
| 2026-05-04 17:58 | 43.11780 | 38.71805 | 14608 ft | 378 kts | 88° |
| 2026-05-04 17:59 | 43.11908 | 38.74185 | 14398 ft | 375 kts | 88° |
| 2026-05-04 17:59 | 43.12101 | 38.77744 | 14044 ft | 374 kts | 88° |
| 2026-05-04 17:59 | 43.12487 | 38.84855 | 13324 ft | 371 kts | 88° |
| 2026-05-04 18:00 | 43.12680 | 38.88380 | 12966 ft | 370 kts | 87° |
| 2026-05-04 18:00 | 43.12871 | 38.91883 | 12638 ft | 369 kts | 87° |
| 2026-05-04 18:00 | 43.13057 | 38.95374 | 12297 ft | 368 kts | 87° |
| 2026-05-04 18:00 | 43.13239 | 38.98868 | 11954 ft | 366 kts | 87° |
| 2026-05-04 18:01 | 43.13419 | 39.02345 | 11602 ft | 365 kts | 88° |
| 2026-05-04 18:01 | 43.13601 | 39.05804 | 11261 ft | 363 kts | 87° |
| 2026-05-04 18:01 | 43.13781 | 39.09248 | 10929 ft | 362 kts | 87° |
| 2026-05-04 18:02 | 43.14120 | 39.15879 | 10597 ft | 337 kts | 87° |
| 2026-05-04 18:02 | 43.14281 | 39.19034 | 10472 ft | 325 kts | 87° |
| 2026-05-04 18:02 | 43.14435 | 39.22076 | 10337 ft | 315 kts | 86° |
| 2026-05-04 18:02 | 43.14799 | 39.24713 | 10214 ft | 308 kts | 74° |
| 2026-05-04 18:03 | 43.15437 | 39.27511 | 9857 ft | 308 kts | 74° |
| 2026-05-04 18:03 | 43.15715 | 39.28785 | 9657 ft | 309 kts | 74° |
| 2026-05-04 18:03 | 43.16317 | 39.31610 | 9202 ft | 310 kts | 74° |
| 2026-05-04 18:03 | 43.16916 | 39.34464 | 8764 ft | 312 kts | 74° |
| 2026-05-04 18:04 | 43.17514 | 39.37313 | 8389 ft | 310 kts | 74° |
| 2026-05-04 18:04 | 43.18106 | 39.40116 | 8054 ft | 301 kts | 75° |
| 2026-05-04 18:04 | 43.19236 | 39.45429 | 7353 ft | 285 kts | 74° |
| 2026-05-04 18:05 | 43.19799 | 39.48069 | 6970 ft | 294 kts | 74° |
| 2026-05-04 18:05 | 43.20377 | 39.50763 | 6541 ft | 297 kts | 74° |
| 2026-05-04 18:05 | 43.20968 | 39.53516 | 6007 ft | 302 kts | 74° |
| 2026-05-04 18:05 | 43.21570 | 39.56328 | 5457 ft | 306 kts | 74° |
| 2026-05-04 18:06 | 43.22763 | 39.61944 | 4400 ft | 311 kts | 73° |
| 2026-05-04 18:06 | 43.23374 | 39.64830 | 4005 ft | 308 kts | 73° |
| 2026-05-04 18:06 | 43.23952 | 39.67563 | 3877 ft | 296 kts | 74° |
| 2026-05-04 18:07 | 43.24514 | 39.70224 | 3758 ft | 286 kts | 74° |
| 2026-05-04 18:07 | 43.25066 | 39.72843 | 3457 ft | 279 kts | 74° |
| 2026-05-04 18:07 | 43.25589 | 39.75318 | 3017 ft | 269 kts | 74° |
| 2026-05-04 18:07 | 43.26103 | 39.77742 | 2611 ft | 260 kts | 74° |
| 2026-05-04 18:08 | 43.26614 | 39.80042 | 2553 ft | 237 kts | 68° |
| 2026-05-04 18:08 | 43.27430 | 39.81930 | 2490 ft | 229 kts | 51° |
| 2026-05-04 18:08 | 43.28585 | 39.83318 | 2397 ft | 220 kts | 34° |
| 2026-05-04 18:08 | 43.29919 | 39.84335 | 2304 ft | 217 kts | 29° |
| 2026-05-04 18:09 | 43.32474 | 39.86240 | 2110 ft | 199 kts | 28° |
| 2026-05-04 18:09 | 43.34770 | 39.87956 | 2003 ft | 176 kts | 29° |
| 2026-05-04 18:10 | 43.35829 | 39.88748 | 1997 ft | 171 kts | 29° |
| 2026-05-04 18:10 | 43.36873 | 39.89530 | 1999 ft | 170 kts | 29° |
| 2026-05-04 18:10 | 43.37915 | 39.90315 | 1798 ft | 174 kts | 29° |
| 2026-05-04 18:10 | 43.38999 | 39.91127 | 1312 ft | 179 kts | 28° |
| 2026-05-04 18:11 | 43.40090 | 39.91948 | 785 ft | 174 kts | 29° |
| 2026-05-04 18:11 | 43.41077 | 39.92708 | 641 ft | 153 kts | 28° |
| 2026-05-04 18:11 | 43.42001 | 39.93381 | 379 ft | 146 kts | 29° |
| 2026-05-04 18:11 | 43.42880 | 39.94046 | 211 ft | 143 kts | 29° |
| 2026-05-04 18:12 | 43.43711 | 39.94675 | 70 ft | 141 kts | 30° |
| 2026-05-04 18:12 | 43.44401 | 39.95194 | 81 ft | 98 kts | 30° |
| 2026-05-04 18:13 | 43.44444 | 39.95227 | 83 ft | 94 kts | 30° |